createdAt,value
2022-10-18T00:01:07.529Z,78.52
2022-10-18T00:03:36.105Z,78.33
2022-10-18T00:06:05.565Z,80.65
2022-10-18T00:08:33.389Z,79.76
2022-10-18T00:11:01.399Z,79.54
2022-10-18T00:13:30.680Z,79.49
2022-10-18T00:16:01.497Z,79.51
2022-10-18T00:18:30.131Z,79.93
2022-10-18T00:21:00.436Z,80.18
2022-10-18T00:23:29.014Z,79.61
2022-10-18T00:26:02.067Z,80.28
2022-10-18T00:28:31.228Z,80.79
2022-10-18T00:30:59.342Z,80.83
2022-10-18T00:33:27.439Z,80.25
2022-10-18T00:35:55.074Z,80.04
2022-10-18T00:38:23.058Z,79.95
2022-10-18T00:40:50.718Z,79.27
2022-10-18T00:43:19.726Z,78.97
2022-10-18T00:45:48.786Z,79.76
2022-10-18T00:48:20.197Z,79.74
2022-10-18T00:50:49.607Z,79.94
2022-10-18T00:53:21.735Z,80.24
2022-10-18T00:55:50.012Z,80.90
2022-10-18T00:58:20.112Z,81.73
2022-10-18T01:00:49.519Z,82.38
2022-10-18T01:03:17.698Z,82.23
2022-10-18T01:05:48.686Z,82.14
2022-10-18T01:08:37.940Z,82.15
2022-10-18T01:11:19.571Z,82.08
2022-10-18T01:14:01.410Z,81.65
2022-10-18T01:16:37.590Z,80.84
2022-10-18T01:19:17.902Z,79.22
2022-10-18T01:21:51.022Z,79.28
2022-10-18T01:24:45.466Z,79.60
2022-10-18T01:27:29.693Z,79.06
2022-10-18T01:30:23.377Z,79.42
2022-10-18T01:32:54.830Z,79.07
2022-10-18T01:35:28.126Z,79.34
2022-10-18T01:38:00.949Z,79.75
2022-10-18T01:40:31.916Z,79.92
2022-10-18T01:43:00.974Z,79.65
2022-10-18T01:45:31.155Z,79.72
2022-10-18T01:48:00.628Z,80.43
2022-10-18T01:50:33.045Z,80.63
2022-10-18T01:53:01.399Z,80.59
2022-10-18T01:55:39.373Z,80.71
2022-10-18T01:58:16.254Z,80.27
2022-10-18T02:00:45.373Z,80.25
2022-10-18T02:03:21.057Z,80.26
2022-10-18T02:05:55.742Z,80.45
2022-10-18T02:08:28.894Z,80.35
2022-10-18T02:11:00.017Z,80.49
2022-10-18T02:13:32.064Z,80.63
2022-10-18T02:16:06.690Z,80.84
2022-10-18T02:18:38.059Z,80.75
2022-10-18T02:21:09.422Z,80.27
2022-10-18T02:23:38.040Z,80.04
2022-10-18T02:26:06.455Z,80.49
2022-10-18T02:28:34.170Z,80.52
2022-10-18T02:31:12.371Z,80.71
2022-10-18T02:33:47.666Z,80.60
2022-10-18T02:36:20.947Z,80.49
2022-10-18T02:38:54.467Z,80.45
2022-10-18T02:41:26.468Z,80.70
2022-10-18T02:43:55.055Z,81.01
2022-10-18T02:46:24.330Z,80.68
2022-10-18T02:48:52.913Z,80.57
2022-10-18T02:51:20.580Z,80.45
2022-10-18T02:53:48.978Z,80.15
2022-10-18T02:56:16.738Z,80.00
2022-10-18T02:58:45.014Z,80.21
2022-10-18T03:01:12.766Z,80.18
2022-10-18T03:03:42.665Z,80.26
2022-10-18T03:06:10.328Z,81.29
2022-10-18T03:08:38.236Z,81.55
2022-10-18T03:11:06.108Z,80.95
2022-10-18T03:13:34.226Z,80.71
2022-10-18T03:16:02.391Z,80.66
2022-10-18T03:18:30.835Z,80.24
2022-10-18T03:20:59.844Z,80.13
2022-10-18T03:23:28.139Z,79.87
2022-10-18T03:25:55.793Z,79.71
2022-10-18T03:28:23.808Z,79.79
2022-10-18T03:30:51.471Z,82.10
2022-10-18T03:33:19.524Z,82.74
2022-10-18T03:35:47.198Z,83.20
2022-10-18T03:38:16.984Z,82.68
2022-10-18T03:40:44.649Z,81.91
2022-10-18T03:43:12.514Z,81.07
2022-10-18T03:45:40.829Z,81.20
2022-10-18T03:48:08.662Z,81.70
2022-10-18T03:50:36.369Z,82.43
2022-10-18T03:53:04.409Z,82.09
2022-10-18T03:55:33.415Z,82.05
2022-10-18T03:58:01.622Z,81.86
2022-10-18T04:00:29.321Z,81.40
2022-10-18T04:02:57.346Z,81.45
2022-10-18T04:05:27.697Z,81.14
2022-10-18T04:07:56.231Z,81.63
2022-10-18T04:10:24.079Z,81.75
2022-10-18T04:12:53.635Z,81.78
2022-10-18T04:15:21.801Z,81.93
2022-10-18T04:17:49.802Z,81.73
2022-10-18T04:20:17.974Z,81.61
2022-10-18T04:22:46.048Z,81.99
2022-10-18T04:25:13.773Z,81.27
2022-10-18T04:27:42.294Z,81.00
2022-10-18T04:30:12.210Z,80.75
2022-10-18T04:32:39.905Z,81.44
2022-10-18T04:35:07.913Z,81.33
2022-10-18T04:37:36.031Z,81.33
2022-10-18T04:40:04.957Z,81.72
2022-10-18T04:42:32.855Z,81.67
2022-10-18T04:45:00.516Z,81.77
2022-10-18T04:47:30.116Z,81.88
2022-10-18T04:49:58.104Z,82.19
2022-10-18T04:52:26.090Z,81.89
2022-10-18T04:54:53.737Z,82.17
2022-10-18T04:57:21.674Z,81.88
2022-10-18T04:59:49.335Z,81.56
2022-10-18T05:02:17.353Z,81.42
2022-10-18T05:04:46.368Z,82.06
2022-10-18T05:07:14.364Z,82.31
2022-10-18T05:09:42.052Z,82.30
2022-10-18T05:12:09.718Z,83.00
2022-10-18T05:14:37.387Z,82.82
2022-10-18T05:17:05.616Z,83.14
2022-10-18T05:19:33.279Z,83.63
2022-10-18T05:22:02.399Z,84.40
2022-10-18T05:24:30.110Z,84.39
2022-10-18T05:26:58.232Z,83.91
2022-10-18T05:31:55.357Z,83.03
2022-10-18T05:34:24.804Z,82.84
2022-10-18T05:36:52.479Z,82.46
2022-10-18T05:39:21.814Z,82.18
2022-10-18T05:41:49.463Z,81.59
2022-10-18T05:44:17.783Z,81.15
2022-10-18T05:46:45.415Z,79.81
2022-10-18T05:49:14.411Z,79.98
2022-10-18T05:51:42.282Z,79.92
2022-10-18T05:54:12.356Z,80.09
2022-10-18T05:56:41.629Z,80.04
2022-10-18T05:59:12.458Z,79.82
2022-10-18T06:01:41.711Z,79.65
2022-10-18T06:04:10.443Z,79.46
2022-10-18T06:06:39.319Z,79.74
2022-10-18T06:09:08.766Z,79.94
2022-10-18T06:11:37.732Z,79.69
2022-10-18T06:14:09.113Z,79.46
2022-10-18T06:19:09.495Z,79.44
2022-10-18T06:21:37.176Z,80.04
2022-10-18T06:24:05.673Z,80.13
2022-10-18T06:26:33.332Z,80.41
2022-10-18T06:29:01.454Z,80.33
2022-10-18T06:31:30.529Z,80.17
2022-10-18T06:33:59.482Z,79.91
2022-10-18T06:36:27.205Z,79.81
2022-10-18T06:38:56.808Z,80.12
2022-10-18T06:41:24.772Z,79.54
2022-10-18T06:43:56.773Z,79.38
2022-10-18T06:46:25.134Z,79.14
2022-10-18T06:48:54.437Z,79.09
2022-10-18T06:51:22.085Z,79.13
2022-10-18T06:53:59.743Z,79.10
2022-10-18T06:56:38.704Z,79.81
2022-10-18T06:59:06.398Z,80.19
2022-10-18T07:01:34.153Z,79.98
2022-10-18T07:04:03.384Z,80.04
2022-10-18T07:06:31.188Z,80.02
2022-10-18T07:08:59.289Z,79.79
2022-10-18T07:11:27.848Z,79.20
2022-10-18T07:14:03.036Z,79.04
2022-10-18T07:16:31.630Z,79.42
2022-10-18T07:18:59.951Z,78.78
2022-10-18T07:21:29.233Z,78.50
2022-10-18T07:23:57.765Z,78.29
2022-10-18T07:26:28.988Z,78.16
2022-10-18T07:29:00.827Z,77.59
2022-10-18T07:31:30.980Z,77.66
2022-10-18T07:33:58.976Z,77.51
2022-10-18T07:36:27.402Z,77.69
2022-10-18T07:38:57.333Z,76.64
2022-10-18T07:41:25.088Z,76.28
2022-10-18T07:43:54.603Z,75.14
2022-10-18T07:46:23.312Z,74.25
2022-10-18T07:48:51.949Z,73.67
2022-10-18T07:51:20.849Z,72.68
2022-10-18T07:53:49.489Z,71.50
2022-10-18T07:56:21.213Z,70.70
2022-10-18T07:58:52.258Z,70.03
2022-10-18T08:01:21.299Z,70.79
2022-10-18T08:03:49.639Z,69.45
2022-10-18T08:06:19.965Z,69.16
2022-10-18T08:08:48.535Z,68.94
2022-10-18T08:11:20.113Z,68.38
2022-10-18T08:13:48.380Z,67.43
2022-10-18T08:16:18.847Z,66.95
2022-10-18T08:18:47.317Z,67.38
2022-10-18T08:21:16.885Z,68.38
2022-10-18T08:23:45.498Z,67.17
2022-10-18T08:26:15.477Z,66.82
2022-10-18T08:28:53.700Z,68.04
2022-10-18T08:31:26.546Z,68.99
2022-10-18T08:33:56.187Z,68.72
2022-10-18T08:36:24.216Z,69.03
2022-10-18T08:38:52.461Z,68.27
2022-10-18T08:41:36.632Z,67.44
2022-10-18T08:44:15.979Z,66.90
2022-10-18T08:46:47.191Z,67.26
2022-10-18T08:49:26.797Z,65.66
2022-10-18T08:51:55.671Z,65.06
2022-10-18T08:54:30.814Z,63.87
2022-10-18T08:57:01.781Z,61.50
2022-10-18T08:59:38.721Z,60.75
2022-10-18T09:02:19.280Z,60.47
2022-10-18T09:04:52.993Z,59.69
2022-10-18T09:07:40.250Z,58.33
2022-10-18T09:10:22.282Z,58.75
2022-10-18T09:13:04.305Z,58.31
2022-10-18T09:15:42.744Z,57.58
2022-10-18T09:18:25.061Z,57.86
2022-10-18T09:20:57.671Z,57.90
2022-10-18T09:23:39.573Z,58.60
2022-10-18T09:26:13.471Z,55.55
2022-10-18T09:28:55.419Z,55.48
2022-10-18T09:31:33.813Z,55.96
2022-10-18T09:34:06.310Z,55.93
2022-10-18T09:36:37.236Z,56.34
2022-10-18T09:39:10.530Z,56.31
2022-10-18T09:41:44.306Z,55.77
2022-10-18T09:44:17.727Z,54.71
2022-10-18T09:46:51.669Z,54.47
2022-10-18T09:49:24.818Z,55.53
2022-10-18T09:51:54.972Z,54.86
2022-10-18T09:54:27.591Z,54.41
2022-10-18T09:57:03.610Z,53.34
2022-10-18T09:59:36.928Z,52.76
2022-10-18T10:02:07.360Z,53.28
2022-10-18T10:04:35.069Z,54.48
2022-10-18T10:07:03.405Z,54.82
2022-10-18T10:09:37.535Z,55.14
2022-10-18T10:12:05.563Z,56.90
2022-10-18T10:14:44.918Z,56.11
2022-10-18T10:17:26.505Z,54.91
2022-10-18T10:20:02.057Z,55.14
2022-10-18T10:22:36.639Z,55.54
2022-10-18T10:25:05.430Z,56.33
2022-10-18T10:27:41.018Z,54.90
2022-10-18T10:30:24.167Z,54.17
2022-10-18T10:32:55.706Z,55.27
2022-10-18T10:35:41.578Z,56.04
2022-10-18T10:38:25.288Z,56.28
2022-10-18T10:40:53.225Z,55.87
2022-10-18T10:43:37.089Z,56.84
2022-10-18T10:46:08.976Z,58.08
2022-10-18T10:48:48.729Z,60.15
2022-10-18T10:51:19.471Z,58.22
2022-10-18T10:53:52.214Z,58.49
2022-10-18T10:56:25.786Z,60.16
2022-10-18T10:58:56.774Z,58.72
2022-10-18T11:01:30.553Z,57.39
2022-10-18T11:04:03.135Z,57.86
2022-10-18T11:06:55.747Z,57.44
2022-10-18T11:09:31.528Z,56.42
2022-10-18T11:12:18.073Z,58.19
2022-10-18T11:14:50.923Z,58.63
2022-10-18T11:17:27.794Z,58.19
2022-10-18T11:20:12.926Z,58.72
2022-10-18T11:22:45.062Z,58.38
2022-10-18T11:25:15.779Z,58.65
2022-10-18T11:27:50.248Z,58.81
2022-10-18T11:30:45.171Z,56.25
2022-10-18T11:33:32.638Z,57.59
2022-10-18T11:36:09.933Z,56.67
2022-10-18T11:38:48.221Z,57.93
2022-10-18T11:41:42.173Z,57.79
2022-10-18T11:44:20.680Z,57.16
2022-10-18T11:46:58.779Z,58.51
2022-10-18T11:49:42.605Z,60.09
2022-10-18T11:52:18.074Z,57.75
2022-10-18T11:55:02.395Z,60.35
2022-10-18T11:57:48.184Z,61.12
2022-10-18T12:00:44.792Z,60.30
2022-10-18T12:03:23.859Z,61.56
2022-10-18T12:05:53.774Z,61.19
2022-10-18T12:08:30.696Z,61.19
2022-10-18T12:11:06.052Z,61.53
2022-10-18T12:13:40.964Z,60.94
2022-10-18T12:16:11.153Z,60.41
2022-10-18T12:18:55.385Z,60.32
2022-10-18T12:21:26.400Z,58.39
2022-10-18T12:24:00.344Z,59.15
2022-10-18T12:26:30.550Z,59.19
2022-10-18T12:29:11.729Z,59.88
2022-10-18T12:31:43.645Z,59.94
2022-10-18T12:34:26.471Z,59.96
2022-10-18T12:37:28.008Z,61.16
2022-10-18T12:40:18.796Z,61.04
2022-10-18T12:42:51.085Z,60.58
2022-10-18T12:45:28.255Z,59.66
2022-10-18T12:48:00.950Z,59.82
2022-10-18T12:50:35.737Z,60.16
2022-10-18T12:53:18.334Z,59.95
2022-10-18T12:55:49.439Z,61.59
2022-10-18T12:58:38.419Z,60.69
2022-10-18T13:01:08.351Z,60.47
2022-10-18T13:04:00.821Z,59.55
2022-10-18T13:07:07.950Z,60.90
2022-10-18T13:09:37.232Z,60.25
2022-10-18T13:12:38.700Z,61.44
2022-10-18T13:15:27.092Z,62.24
2022-10-18T13:18:02.000Z,61.72
2022-10-18T13:20:38.292Z,62.95
2022-10-18T13:23:20.872Z,61.88
2022-10-18T13:26:02.314Z,62.78
2022-10-18T13:28:39.282Z,61.50
2022-10-18T13:31:20.304Z,62.23
2022-10-18T13:33:48.999Z,62.04
2022-10-18T13:36:25.705Z,63.75
2022-10-18T13:39:04.084Z,61.76
2022-10-18T13:41:35.499Z,61.50
2022-10-18T13:44:28.840Z,61.87
2022-10-18T13:47:35.762Z,61.18
2022-10-18T13:50:18.716Z,62.88
2022-10-18T13:53:24.398Z,61.47
2022-10-18T13:56:14.720Z,62.19
2022-10-18T13:59:06.155Z,61.79
2022-10-18T14:01:53.435Z,63.12
2022-10-18T14:05:06.194Z,63.65
2022-10-18T14:07:47.328Z,61.88
2022-10-18T14:10:43.391Z,63.44
2022-10-18T14:13:21.669Z,61.83
2022-10-18T14:15:52.771Z,62.19
2022-10-18T14:18:27.953Z,62.16
2022-10-18T14:21:21.618Z,62.67
2022-10-18T14:23:52.278Z,61.76
2022-10-18T14:26:22.630Z,62.70
2022-10-18T14:29:04.210Z,62.44
2022-10-18T14:31:32.042Z,61.91
2022-10-18T14:34:00.653Z,61.86
2022-10-18T14:36:31.675Z,61.43
2022-10-18T14:39:03.274Z,62.86
2022-10-18T14:41:32.760Z,61.74
2022-10-18T14:44:21.566Z,62.26
2022-10-18T14:46:52.554Z,61.81
2022-10-18T14:49:21.834Z,62.43
2022-10-18T14:51:52.150Z,63.33
2022-10-18T14:54:29.031Z,62.82
2022-10-18T14:57:00.332Z,62.28
2022-10-18T14:59:31.839Z,62.30
2022-10-18T15:02:02.105Z,62.53
2022-10-18T15:04:33.334Z,64.32
2022-10-18T15:07:03.404Z,64.03
2022-10-18T15:09:35.087Z,63.66
2022-10-18T15:12:04.570Z,65.80
2022-10-18T15:14:33.101Z,67.66
2022-10-18T15:17:04.061Z,68.90
2022-10-18T15:19:34.408Z,70.38
2022-10-18T15:22:30.229Z,71.05
2022-10-18T15:25:16.367Z,71.55
2022-10-18T15:27:47.863Z,71.71
2022-10-18T15:30:23.982Z,71.83
2022-10-18T15:32:54.441Z,72.83
2022-10-18T15:35:26.763Z,72.39
2022-10-18T15:37:56.791Z,73.00
2022-10-18T15:40:36.151Z,73.29
2022-10-18T15:43:06.887Z,73.46
2022-10-18T15:45:38.243Z,73.36
2022-10-18T15:48:23.777Z,74.35
2022-10-18T15:50:53.354Z,74.65
2022-10-18T15:53:38.250Z,74.87
2022-10-18T15:56:11.372Z,75.00
2022-10-18T15:58:42.937Z,75.08
2022-10-18T16:01:17.067Z,74.57
2022-10-18T16:03:47.222Z,74.80
2022-10-18T16:06:18.239Z,75.33
2022-10-18T16:08:48.660Z,75.70
2022-10-18T16:11:20.770Z,75.80
2022-10-18T16:13:49.671Z,75.66
2022-10-18T16:16:20.417Z,75.69
2022-10-18T16:18:48.839Z,75.63
2022-10-18T16:21:20.555Z,76.26
2022-10-18T16:23:49.335Z,76.14
2022-10-18T16:26:19.202Z,76.09
2022-10-18T16:28:47.575Z,76.36
2022-10-18T16:31:18.796Z,76.31
2022-10-18T16:33:47.987Z,76.61
2022-10-18T16:36:17.587Z,77.15
2022-10-18T16:38:46.252Z,77.58
2022-10-18T16:41:15.800Z,77.60
2022-10-18T16:43:46.949Z,78.09
2022-10-18T16:46:18.152Z,77.77
2022-10-18T16:48:47.693Z,77.80
2022-10-18T16:51:15.751Z,77.59
2022-10-18T16:53:44.120Z,78.02
2022-10-18T16:56:15.325Z,78.17
2022-10-18T16:58:45.716Z,78.07
2022-10-18T17:01:14.596Z,77.92
2022-10-18T17:03:42.714Z,78.19
2022-10-18T17:06:16.164Z,78.36
2022-10-18T17:08:44.671Z,78.93
2022-10-18T17:11:13.717Z,78.64
2022-10-18T17:13:42.426Z,79.09
2022-10-18T17:16:22.396Z,79.21
2022-10-18T17:18:50.170Z,78.89
2022-10-18T17:21:18.182Z,78.67
2022-10-18T17:23:46.708Z,78.65
2022-10-18T17:26:28.229Z,78.71
2022-10-18T17:28:59.173Z,79.22
2022-10-18T17:31:29.224Z,79.40
2022-10-18T17:33:58.768Z,79.92
2022-10-18T17:36:26.866Z,81.51
2022-10-18T17:38:56.378Z,80.53
2022-10-18T17:41:24.295Z,80.19
2022-10-18T17:43:52.653Z,80.17
2022-10-18T17:46:20.453Z,79.91
2022-10-18T17:48:49.759Z,79.84
2022-10-18T17:51:18.485Z,80.14
2022-10-18T17:53:46.557Z,79.99
2022-10-18T17:56:15.452Z,80.27
2022-10-18T17:58:44.190Z,80.54
2022-10-18T18:01:13.688Z,80.59
2022-10-18T18:03:41.619Z,80.53
2022-10-18T18:06:18.593Z,80.73
2022-10-18T18:08:47.560Z,80.96
2022-10-18T18:11:16.339Z,81.92
2022-10-18T18:13:44.047Z,82.23
2022-10-18T18:16:14.680Z,82.29
2022-10-18T18:18:42.635Z,82.14
2022-10-18T18:21:10.480Z,82.26
2022-10-18T18:23:39.655Z,82.27
2022-10-18T18:26:07.749Z,82.20
2022-10-18T18:28:36.174Z,82.23
2022-10-18T18:31:07.009Z,82.26
2022-10-18T18:33:34.861Z,82.35
2022-10-18T18:36:04.761Z,82.33
2022-10-18T18:38:32.820Z,82.35
2022-10-18T18:41:07.499Z,82.08
2022-10-18T18:43:35.819Z,82.03
2022-10-18T18:46:04.095Z,82.08
2022-10-18T18:48:33.712Z,82.01
2022-10-18T18:51:02.445Z,82.03
2022-10-18T18:53:30.353Z,82.09
2022-10-18T18:56:12.105Z,82.04
2022-10-18T18:58:40.587Z,81.72
2022-10-18T19:01:09.222Z,81.15
2022-10-18T19:03:38.765Z,80.91
2022-10-18T19:06:07.705Z,80.91
2022-10-18T19:08:36.817Z,80.89
2022-10-18T19:11:08.104Z,81.17
2022-10-18T19:13:38.289Z,81.00
2022-10-18T19:16:19.714Z,81.11
2022-10-18T19:18:55.633Z,81.12
2022-10-18T19:21:24.773Z,81.00
2022-10-18T19:23:52.695Z,81.00
2022-10-18T19:26:29.925Z,80.92
2022-10-18T19:29:06.781Z,81.24
2022-10-18T19:31:35.577Z,81.22
2022-10-18T19:34:04.275Z,81.68
2022-10-18T19:36:32.264Z,81.81
2022-10-18T19:39:00.130Z,82.16
2022-10-18T19:41:29.552Z,82.26
2022-10-18T19:43:58.074Z,82.30
2022-10-18T19:46:27.219Z,82.63
2022-10-18T19:48:54.914Z,82.82
2022-10-18T19:51:27.085Z,82.60
2022-10-18T19:53:56.221Z,82.34
2022-10-18T19:56:26.202Z,82.28
2022-10-18T19:58:54.142Z,82.05
2022-10-18T20:01:22.381Z,80.94
2022-10-18T20:03:51.755Z,81.13
2022-10-18T20:06:19.935Z,81.13
2022-10-18T20:08:48.256Z,81.15
2022-10-18T20:11:22.656Z,81.51
2022-10-18T20:13:50.710Z,81.41
2022-10-18T20:16:25.480Z,81.90
2022-10-18T20:18:58.592Z,82.22
2022-10-18T20:21:28.298Z,82.33
2022-10-18T20:23:56.088Z,82.30
2022-10-18T20:26:25.739Z,82.54
2022-10-18T20:28:57.584Z,82.84
2022-10-18T20:31:29.380Z,82.69
2022-10-18T20:34:00.061Z,82.52
2022-10-18T20:36:29.940Z,82.77
2022-10-18T20:38:58.528Z,82.85
2022-10-18T20:41:28.379Z,83.05
2022-10-18T20:43:57.985Z,82.74
2022-10-18T20:46:26.706Z,83.23
2022-10-18T20:48:55.147Z,83.41
2022-10-18T20:51:25.120Z,83.04
2022-10-18T20:53:53.568Z,83.01
2022-10-18T20:56:26.803Z,82.90
2022-10-18T20:58:56.279Z,83.33
2022-10-18T21:01:26.173Z,83.27
2022-10-18T21:03:55.574Z,83.20
2022-10-18T21:06:27.249Z,83.06
2022-10-18T21:08:55.731Z,83.14
2022-10-18T21:11:24.516Z,83.15
2022-10-18T21:13:52.536Z,83.34
2022-10-18T21:16:20.602Z,83.29
2022-10-18T21:18:48.986Z,83.20
2022-10-18T21:21:18.470Z,83.03
2022-10-18T21:23:47.863Z,82.95
2022-10-18T21:26:16.900Z,82.59
2022-10-18T21:28:45.030Z,82.83
2022-10-18T21:31:15.804Z,82.54
2022-10-18T21:33:44.361Z,82.56
2022-10-18T21:36:13.047Z,82.54
2022-10-18T21:38:44.167Z,82.59
2022-10-18T21:41:15.586Z,82.47
2022-10-18T21:43:45.530Z,82.01
2022-10-18T21:46:14.815Z,81.58
2022-10-18T21:48:44.586Z,81.03
2022-10-18T21:51:13.459Z,81.16
2022-10-18T21:53:43.877Z,81.63
2022-10-18T21:56:16.202Z,81.34
2022-10-18T21:58:44.289Z,81.08
2022-10-18T22:01:14.576Z,80.38
2022-10-18T22:03:42.422Z,80.63
2022-10-18T22:06:14.686Z,82.21
2022-10-18T22:08:42.951Z,83.24
2022-10-18T22:11:11.360Z,82.81
2022-10-18T22:13:41.463Z,83.12
2022-10-18T22:16:10.448Z,83.20
2022-10-18T22:18:38.417Z,82.81
2022-10-18T22:21:08.233Z,82.16
2022-10-18T22:23:37.329Z,81.99
2022-10-18T22:26:07.682Z,81.96
2022-10-18T22:28:35.724Z,82.07
2022-10-18T22:31:05.716Z,81.82
2022-10-18T22:33:33.583Z,81.70
2022-10-18T22:36:01.738Z,81.94
2022-10-18T22:38:33.637Z,82.02
2022-10-18T22:41:05.087Z,82.01
2022-10-18T22:43:32.734Z,82.20
2022-10-18T22:46:01.754Z,82.00
2022-10-18T22:48:31.265Z,81.87
2022-10-18T22:50:58.944Z,82.11
2022-10-18T22:53:27.757Z,82.01
2022-10-18T22:55:55.431Z,82.08
2022-10-18T22:58:23.982Z,82.55
2022-10-18T23:00:51.653Z,82.32
2022-10-18T23:03:20.332Z,82.56
2022-10-18T23:05:49.302Z,82.67
2022-10-18T23:08:17.581Z,82.75
2022-10-18T23:10:45.342Z,82.81
2022-10-18T23:13:14.521Z,82.77
2022-10-18T23:15:42.199Z,82.68
2022-10-18T23:18:10.157Z,82.67
2022-10-18T23:20:37.796Z,82.86
2022-10-18T23:23:07.123Z,82.73
2022-10-18T23:25:36.740Z,82.82
2022-10-18T23:28:04.717Z,82.78
2022-10-18T23:30:32.519Z,82.85
2022-10-18T23:33:01.068Z,82.88
2022-10-18T23:35:30.090Z,82.51
2022-10-18T23:37:58.361Z,82.82
2022-10-18T23:40:27.377Z,82.85
2022-10-18T23:42:55.365Z,82.61
2022-10-18T23:45:23.373Z,82.82
2022-10-18T23:47:51.039Z,82.56
2022-10-18T23:50:18.685Z,82.81
2022-10-18T23:52:46.637Z,82.82
2022-10-18T23:55:14.251Z,82.29
2022-10-18T23:57:43.445Z,82.26
